Time;durP1;ratioP1;P1;durP2;ratioP2;P2;SDS_P1;SDS_P2;PMS_P1;PMS_P2;Temp;Humidity;BMP_temperature;BMP_pressure;BME280_temperature;BME280_humidity;BME280_pressure;Samples;Min_cycle;Max_cycle;Signal;HPM_P1;HPM_P2
2022/09/02 00:00:47;;;;;;;1.42;1.17;;;20.10;83.90;;;;;;5004409;28;20034;-83
2022/09/02 00:03:13;;;;;;;2.53;0.93;;;20.10;84.00;;;;;;5005811;28;20037;-83
2022/09/02 00:05:39;;;;;;;2.50;1.35;;;20.20;84.10;;;;;;4988476;28;20030;-83
2022/09/02 00:08:06;;;;;;;1.90;1.08;;;20.10;84.00;;;;;;5004967;28;20038;-83
2022/09/02 00:10:34;;;;;;;2.55;1.25;;;20.00;83.90;;;;;;5007932;28;20042;-83
2022/09/02 00:13:00;;;;;;;2.20;1.67;;;20.10;84.00;;;;;;5025205;28;20020;-83
2022/09/02 00:15:26;;;;;;;2.28;1.38;;;20.10;84.10;;;;;;5007397;28;20510;-83
2022/09/02 00:17:53;;;;;;;1.92;1.52;;;20.00;84.10;;;;;;5025097;28;20022;-83
2022/09/02 00:20:19;;;;;;;2.67;1.30;;;20.00;84.20;;;;;;5025102;28;20040;-83
2022/09/02 00:22:45;;;;;;;5.63;1.85;;;20.00;84.30;;;;;;5023758;28;20041;-83
2022/09/02 00:25:11;;;;;;;2.35;1.38;;;20.00;84.40;;;;;;5023443;28;20040;-83
2022/09/02 00:27:37;;;;;;;7.47;2.03;;;20.00;84.50;;;;;;5023715;28;20038;-83
2022/09/02 00:30:05;;;;;;;1.65;0.90;;;20.00;84.60;;;;;;5023282;28;20179;-83
2022/09/02 00:32:30;;;;;;;5.00;1.85;;;20.00;84.60;;;;;;4991095;28;20030;-83
2022/09/02 00:34:57;;;;;;;3.42;1.70;;;19.90;84.50;;;;;;5023544;28;20041;-83
2022/09/02 00:37:25;;;;;;;1.83;0.98;;;19.90;84.50;;;;;;4990884;28;20390;-83
2022/09/02 00:39:53;;;;;;;1.52;1.35;;;19.90;84.50;;;;;;5004480;28;20030;-83
2022/09/02 00:42:20;;;;;;;2.53;1.70;;;19.90;84.60;;;;;;4987460;28;20030;-83
2022/09/02 00:44:47;;;;;;;1.35;1.25;;;19.90;84.60;;;;;;5003610;28;20026;-83
2022/09/02 00:47:14;;;;;;;1.83;1.42;;;19.80;84.60;;;;;;4971482;28;20042;-83
2022/09/02 00:49:44;;;;;;;2.15;1.48;;;19.80;84.60;;;;;;5004739;28;20035;-83
2022/09/02 00:52:33;;;;;;;2.40;1.80;;;19.80;84.70;;;;;;4987239;28;20033;-83
2022/09/02 00:55:21;;;;;;;3.38;2.35;;;19.80;84.70;;;;;;5008130;28;20056;-83
2022/09/02 00:57:56;;;;;;;5.15;2.28;;;19.80;84.70;;;;;;5006755;28;20466;-83
2022/09/02 01:00:27;;;;;;;3.40;1.20;;;19.80;84.70;;;;;;5023143;28;20071;-83
2022/09/02 01:03:00;;;;;;;3.53;1.83;;;19.70;84.80;;;;;;5022850;28;20025;-83
2022/09/02 01:05:30;;;;;;;5.35;2.00;;;19.70;84.90;;;;;;5006790;28;20032;-83
2022/09/02 01:07:57;;;;;;;1.50;1.40;;;19.50;84.80;;;;;;5023073;28;20494;-83
2022/09/02 01:10:27;;;;;;;2.28;1.90;;;19.70;84.90;;;;;;4995139;28;20042;-83
2022/09/02 01:12:58;;;;;;;3.70;1.95;;;19.70;84.80;;;;;;4986830;28;20481;-83
2022/09/02 01:15:25;;;;;;;4.40;2.53;;;19.70;84.90;;;;;;5003286;28;20030;-83
2022/09/02 01:17:52;;;;;;;1.98;1.83;;;19.70;84.90;;;;;;5003167;28;20034;-83
2022/09/02 01:20:25;;;;;;;1.42;1.33;;;19.70;84.90;;;;;;5002911;28;20030;-83
2022/09/02 01:22:52;;;;;;;3.10;1.75;;;19.70;89.60;;;;;;5004273;28;20052;-83
2022/09/02 01:25:22;;;;;;;6.07;1.55;;;19.60;84.90;;;;;;5006708;28;20027;-83
2022/09/02 01:27:48;;;;;;;;;;;19.60;84.90;;;;;;5004215;28;20026;-83
2022/09/02 01:30:22;;;;;;;2.90;1.52;;;19.60;85.00;;;;;;5002934;28;19920;-82
2022/09/02 01:32:49;;;;;;;1.98;1.20;;;19.60;85.00;;;;;;4986913;28;20026;-83
2022/09/02 01:35:16;;;;;;;1.90;1.55;;;19.50;85.00;;;;;;5002818;28;20084;-83
2022/09/02 01:37:43;;;;;;;0.90;0.90;;;19.50;85.00;;;;;;5002868;28;20023;-83
2022/09/02 01:40:14;;;;;;;1.45;1.35;;;19.50;85.10;;;;;;4987616;28;20091;-83
2022/09/02 01:42:42;;;;;;;2.83;1.67;;;19.50;85.10;;;;;;5002969;28;20032;-83
2022/09/02 01:45:08;;;;;;;1.27;1.17;;;19.50;85.20;;;;;;5023992;28;20105;-83
2022/09/02 01:47:35;;;;;;;1.63;1.30;;;19.50;85.20;;;;;;5108677;28;20118;-83
2022/09/02 01:50:03;;;;;;;4.30;1.98;;;19.50;85.30;;;;;;5108370;28;20376;-83
2022/09/02 01:52:29;;;;;;;1.60;1.50;;;19.50;85.30;;;;;;5125448;28;20023;-83
2022/09/02 01:54:57;;;;;;;6.20;1.33;;;19.20;89.90;;;;;;5108530;28;20047;-83
2022/09/02 01:57:23;;;;;;;3.03;1.20;;;19.40;85.40;;;;;;5019112;28;20033;-83
2022/09/02 01:59:51;;;;;;;6.68;1.63;;;19.40;85.40;;;;;;5002470;28;20037;-83
2022/09/02 02:02:18;;;;;;;1.80;1.45;;;19.40;85.50;;;;;;4986465;28;20117;-83
2022/09/02 02:04:46;;;;;;;6.57;2.03;;;19.40;85.50;;;;;;5002488;28;20045;-83
2022/09/02 02:07:14;;;;;;;2.95;1.67;;;19.40;85.50;;;;;;4986152;28;20090;-83
2022/09/02 02:09:41;;;;;;;1.60;1.50;;;19.30;85.70;;;;;;5018476;28;20521;-82
2022/09/02 02:12:08;;;;;;;2.03;0.82;;;19.30;85.60;;;;;;4986975;28;20033;-83
2022/09/02 02:14:34;;;;;;;2.08;1.98;;;19.30;85.60;;;;;;5002663;28;20490;-83
2022/09/02 02:17:00;;;;;;;3.72;1.52;;;19.30;85.70;;;;;;5053849;28;20022;-82
2022/09/02 02:19:26;;;;;;;2.25;1.80;;;19.30;85.60;;;;;;5002381;28;20031;-83
2022/09/02 02:21:52;;;;;;;2.20;1.92;;;19.30;85.80;;;;;;5018719;28;20060;-83
2022/09/02 02:24:18;;;;;;;1.98;1.83;;;19.20;85.70;;;;;;5002205;28;20065;-83
2022/09/02 02:26:45;;;;;;;1.40;1.27;;;19.20;85.80;;;;;;5017015;28;20052;-83
2022/09/02 02:29:12;;;;;;;5.07;2.00;;;19.20;85.80;;;;;;5021707;28;20061;-83
2022/09/02 02:31:38;;;;;;;4.13;1.48;;;19.20;85.80;;;;;;5005389;28;20022;-83
2022/09/02 02:34:04;;;;;;;3.25;2.08;;;19.20;85.80;;;;;;5021967;28;20390;-83
2022/09/02 02:36:32;;;;;;;2.10;1.98;;;19.20;85.90;;;;;;4989657;28;20041;-83
2022/09/02 02:39:00;;;;;;;2.58;1.40;;;19.20;85.90;;;;;;5021964;28;20109;-83
2022/09/02 02:41:26;;;;;;;2.65;1.65;;;19.10;86.00;;;;;;5001885;28;20440;-83
2022/09/02 02:43:53;;;;;;;2.20;2.00;;;19.10;86.10;;;;;;5008668;28;20045;-83
2022/09/02 02:46:19;;;;;;;2.42;1.83;;;19.10;86.00;;;;;;4969678;28;20026;-83
2022/09/02 02:48:45;;;;;;;2.58;1.77;;;19.00;86.10;;;;;;5002046;28;20053;-83
2022/09/02 02:51:10;;;;;;;1.63;1.50;;;19.10;86.30;;;;;;5001985;28;20027;-83
2022/09/02 02:53:37;;;;;;;16.85;3.60;;;19.10;86.20;;;;;;5001929;28;20015;-83
2022/09/02 02:56:04;;;;;;;1.75;1.52;;;19.00;86.30;;;;;;4985716;28;20126;-83
2022/09/02 02:58:30;;;;;;;2.28;1.35;;;19.00;86.60;;;;;;5002284;28;20023;-83
2022/09/02 03:00:59;;;;;;;1.48;1.35;;;19.00;86.50;;;;;;5002817;28;20018;-83
2022/09/02 03:03:25;;;;;;;1.70;1.60;;;19.00;86.50;;;;;;5004035;28;20030;-81
2022/09/02 03:05:54;;;;;;;3.38;2.17;;;19.00;86.50;;;;;;4987106;28;20044;-83
2022/09/02 03:08:21;;;;;;;7.20;2.20;;;19.00;86.70;;;;;;4985405;28;20023;-83
2022/09/02 03:10:53;;;;;;;1.20;1.10;;;19.00;86.80;;;;;;4985894;28;20039;-83
2022/09/02 03:13:21;;;;;;;1.77;1.67;;;19.00;86.80;;;;;;4985874;28;20030;-83
2022/09/02 03:15:49;;;;;;;1.25;1.10;;;19.00;86.90;;;;;;4985421;28;20034;-83
2022/09/02 03:18:15;;;;;;;2.72;0.95;;;19.00;86.90;;;;;;4988632;28;20052;-83
2022/09/02 03:20:41;;;;;;;3.47;1.95;;;19.00;87.00;;;;;;5004683;28;20114;-83
2022/09/02 03:23:11;;;;;;;1.88;1.75;;;18.90;87.00;;;;;;5004999;28;20033;-83
2022/09/02 03:25:39;;;;;;;2.78;1.52;;;19.00;87.20;;;;;;5004993;28;20121;-83
2022/09/02 03:28:14;;;;;;;5.03;2.78;;;18.90;87.30;;;;;;5005956;28;20049;-83
2022/09/02 03:30:41;;;;;;;2.83;1.50;;;19.00;87.20;;;;;;5024103;28;20034;-83
2022/09/02 03:33:07;;;;;;;1.75;1.60;;;19.00;87.20;;;;;;5024624;28;20032;-83
2022/09/02 03:35:38;;;;;;;2.97;1.83;;;19.00;87.30;;;;;;5024470;28;20052;-83
2022/09/02 03:38:04;;;;;;;1.65;1.38;;;19.00;87.30;;;;;;5024534;28;20038;-83
2022/09/02 03:40:31;;;;;;;3.47;1.73;;;18.90;87.50;;;;;;5008158;28;20022;-83
2022/09/02 03:42:56;;;;;;;2.90;1.75;;;19.00;87.20;;;;;;5024364;28;20087;-83
2022/09/02 03:45:23;;;;;;;3.10;1.63;;;19.00;87.20;;;;;;5006488;28;20033;-83
2022/09/02 03:47:53;;;;;;;4.07;1.20;;;19.00;87.30;;;;;;5128255;28;20024;-82
2022/09/02 03:50:26;;;;;;;1.30;1.08;;;19.00;87.30;;;;;;5128306;28;20053;-83
2022/09/02 03:52:53;;;;;;;1.52;1.42;;;19.00;87.30;;;;;;5128077;28;20024;-83
2022/09/02 03:55:20;;;;;;;4.85;1.58;;;19.00;87.30;;;;;;5110916;28;20460;-83
2022/09/02 03:57:46;;;;;;;4.55;1.83;;;19.00;87.50;;;;;;5098727;28;20032;-83
2022/09/02 04:00:14;;;;;;;1.20;1.05;;;19.00;87.60;;;;;;5023299;28;20025;-83
2022/09/02 04:02:40;;;;;;;3.53;1.38;;;19.00;87.70;;;;;;5024790;28;20034;-83
2022/09/02 04:05:11;;;;;;;2.22;2.03;;;19.00;87.60;;;;;;5008068;28;20098;-83
2022/09/02 04:07:38;;;;;;;2.80;1.63;;;19.00;87.50;;;;;;5024249;28;20037;-83
2022/09/02 04:10:07;;;;;;;4.57;2.28;;;19.00;87.80;;;;;;5023887;28;20102;-83
2022/09/02 04:12:35;;;;;;;4.82;2.20;;;19.00;88.00;;;;;;5008073;28;20030;-83
2022/09/02 04:15:04;;;;;;;3.53;2.22;;;18.90;88.00;;;;;;5002400;28;20033;-83
2022/09/02 04:17:30;;;;;;;3.17;1.20;;;19.00;88.20;;;;;;5004249;28;20030;-83
2022/09/02 04:19:57;;;;;;;2.65;1.48;;;19.00;88.10;;;;;;5004215;28;20108;-83
2022/09/02 04:22:24;;;;;;;1.70;1.55;;;19.00;88.00;;;;;;5004522;28;20035;-83
2022/09/02 04:24:50;;;;;;;4.65;2.03;;;19.00;88.30;;;;;;4987835;28;20027;-83
2022/09/02 04:27:15;;;;;;;1.45;1.33;;;18.90;88.30;;;;;;5004217;28;20031;-83
2022/09/02 04:29:44;;;;;;;2.97;1.83;;;18.90;88.30;;;;;;4973958;28;20494;-83
2022/09/02 04:32:10;;;;;;;3.47;2.35;;;18.90;88.30;;;;;;4987855;28;20023;-83
2022/09/02 04:34:36;;;;;;;2.03;1.30;;;19.00;88.30;;;;;;5004150;28;20030;-83
2022/09/02 04:37:03;;;;;;;3.67;1.40;;;19.00;88.30;;;;;;4988097;28;20058;-83
2022/09/02 04:39:29;;;;;;;2.08;1.90;;;19.00;88.50;;;;;;5004033;28;20035;-83
2022/09/02 04:41:55;;;;;;;2.50;2.15;;;19.00;88.70;;;;;;4987601;28;20022;-83
2022/09/02 04:44:24;;;;;;;2.70;1.30;;;19.00;88.70;;;;;;4988886;28;20027;-83
2022/09/02 04:46:51;;;;;;;6.78;1.83;;;19.00;89.00;;;;;;5075793;28;20045;-83
2022/09/02 04:49:20;;;;;;;3.00;1.50;;;18.90;88.70;;;;;;5014868;28;20094;-83
2022/09/02 04:51:49;;;;;;;3.35;2.05;;;18.90;88.80;;;;;;4993233;28;20072;-83
2022/09/02 04:54:15;;;;;;;3.03;1.80;;;18.90;88.90;;;;;;5003618;28;20449;-83
2022/09/02 04:56:45;;;;;;;8.00;1.98;;;19.00;88.80;;;;;;4987946;28;20019;-83
2022/09/02 04:59:12;;;;;;;3.40;1.30;;;18.90;89.10;;;;;;5009930;28;20026;-83
2022/09/02 05:01:44;;;;;;;8.90;2.40;;;18.90;89.10;;;;;;5015542;28;20030;-82
2022/09/02 05:04:15;;;;;;;6.93;2.40;;;18.90;89.10;;;;;;5004188;28;20026;-83
2022/09/02 05:06:45;;;;;;;5.38;3.42;;;18.90;89.20;;;;;;4999218;28;20027;-82
2022/09/02 05:09:17;;;;;;;3.40;1.85;;;18.90;89.20;;;;;;5016827;28;20046;-82
2022/09/02 05:11:48;;;;;;;4.47;1.33;;;18.90;89.10;;;;;;5013758;28;20390;-82
2022/09/02 05:14:18;;;;;;;6.38;1.65;;;18.90;89.30;;;;;;5003620;28;20024;-83
2022/09/02 05:16:44;;;;;;;4.93;1.58;;;18.90;89.40;;;;;;5004962;28;20014;-82
2022/09/02 05:19:14;;;;;;;7.80;2.67;;;18.90;89.40;;;;;;5003169;28;20026;-82
2022/09/02 05:21:45;;;;;;;3.70;2.15;;;18.90;89.50;;;;;;5012800;28;20027;-83
2022/09/02 05:24:18;;;;;;;5.55;2.67;;;18.90;89.50;;;;;;5013959;28;20029;-84
2022/09/02 05:26:44;;;;;;;4.57;2.08;;;18.90;89.60;;;;;;5017673;28;20042;-84
2022/09/02 05:29:12;;;;;;;4.88;1.65;;;18.90;89.70;;;;;;5019234;28;20026;-84
2022/09/02 05:31:40;;;;;;;4.30;2.33;;;18.90;89.70;;;;;;4999731;28;20018;-84
2022/09/02 05:34:09;;;;;;;2.45;1.85;;;18.90;89.70;;;;;;4992548;28;20086;-84
2022/09/02 05:36:35;;;;;;;5.20;1.90;;;18.90;89.90;;;;;;5013923;28;20022;-84
2022/09/02 05:39:02;;;;;;;4.60;1.23;;;18.90;89.90;;;;;;4986113;28;20038;-85
2022/09/02 05:41:29;;;;;;;12.73;2.40;;;18.90;89.80;;;;;;5014881;28;20034;-85
2022/09/02 05:44:01;;;;;;;5.68;1.77;;;18.90;89.90;;;;;;5005079;28;20044;-84
2022/09/02 05:46:27;;;;;;;3.40;1.77;;;18.90;90.00;;;;;;5016838;28;20026;-84
2022/09/02 05:49:07;;;;;;;3.40;1.75;;;18.90;90.00;;;;;;5027436;28;20758;-84
2022/09/02 05:51:44;;;;;;;8.30;2.15;;;18.90;90.00;;;;;;5133741;28;20474;-84
2022/09/02 05:54:21;;;;;;;2.65;1.50;;;18.90;89.90;;;;;;5025802;28;20026;-84
2022/09/02 05:56:50;;;;;;;4.63;2.13;;;18.90;90.10;;;;;;5052508;27;20032;-84
2022/09/02 05:59:18;;;;;;;6.53;1.63;;;18.90;90.10;;;;;;5038734;28;20036;-84
2022/09/02 06:01:45;;;;;;;5.05;1.92;;;18.90;90.20;;;;;;5015059;28;20013;-84
2022/09/02 06:04:10;;;;;;;4.60;1.85;;;18.90;90.30;;;;;;5032534;28;20022;-83
2022/09/02 06:06:38;;;;;;;3.13;1.80;;;18.90;90.20;;;;;;5012910;28;20462;-85
2022/09/02 06:09:08;;;;;;;2.33;1.30;;;18.90;90.30;;;;;;5029210;28;20050;-86
2022/09/02 06:11:38;;;;;;;1.83;1.38;;;18.90;90.20;;;;;;5027844;28;20112;-86
2022/09/02 06:14:08;;;;;;;7.88;2.08;;;18.90;90.20;;;;;;5029415;28;20045;-85
2022/09/02 06:16:37;;;;;;;6.72;1.83;;;19.00;90.20;;;;;;5045511;28;20018;-85
2022/09/02 06:19:03;;;;;;;8.85;1.75;;;18.90;90.20;;;;;;5044751;28;20030;-85
2022/09/02 06:21:31;;;;;;;11.80;2.35;;;18.90;90.20;;;;;;5028235;28;20028;-86
2022/09/02 06:23:58;;;;;;;4.55;1.48;;;18.90;90.20;;;;;;5027803;28;20091;-85
2022/09/02 06:26:24;;;;;;;6.18;2.00;;;18.90;90.20;;;;;;5043967;28;20057;-86
2022/09/02 06:28:51;;;;;;;1.90;1.80;;;19.00;90.40;;;;;;5011693;28;20101;-86
2022/09/02 06:31:20;;;;;;;11.65;1.88;;;19.00;90.50;;;;;;5044775;28;20018;-86
2022/09/02 06:33:50;;;;;;;6.97;2.08;;;19.00;90.40;;;;;;5080809;28;20024;-85
2022/09/02 06:36:18;;;;;;;4.22;1.73;;;19.00;90.40;;;;;;4989826;28;20041;-85
2022/09/02 06:38:47;;;;;;;2.50;1.77;;;19.00;90.40;;;;;;4973256;28;20026;-86
2022/09/02 06:41:17;;;;;;;11.02;2.65;;;19.00;90.40;;;;;;5013340;28;20027;-86
2022/09/02 06:43:44;;;;;;;3.78;2.13;;;19.00;90.40;;;;;;5021324;28;20026;-85
2022/09/02 06:46:22;;;;;;;3.92;1.73;;;19.00;90.80;;;;;;5008666;28;20018;-85
2022/09/02 06:48:51;;;;;;;7.47;1.95;;;19.00;90.50;;;;;;5007144;28;20443;-86
2022/09/02 06:51:30;;;;;;;7.80;1.20;;;19.00;90.50;;;;;;5010694;28;20057;-86
2022/09/02 06:53:59;;;;;;;2.70;2.50;;;19.10;92.80;;;;;;5026550;28;20091;-86
2022/09/02 06:56:28;;;;;;;;;;;19.00;90.60;;;;;;5001591;28;20030;-85
2022/09/02 06:58:55;;;;;;;1.27;1.23;;;19.00;90.50;;;;;;5006568;28;19910;-84
2022/09/02 07:01:34;;;;;;;4.32;1.60;;;19.00;90.60;;;;;;5006585;28;20030;-85
2022/09/02 07:06:51;;;;;;;4.43;2.00;;;19.00;90.60;;;;;;5015352;28;20034;-84
2022/09/02 07:09:21;;;;;;;3.85;2.08;;;19.00;90.80;;;;;;5028031;28;20046;-85
2022/09/02 07:11:49;;;;;;;3.92;2.58;;;19.00;90.60;;;;;;5006404;28;20015;-85
2022/09/02 07:14:18;;;;;;;15.10;1.70;;;19.00;90.80;;;;;;5021156;28;20033;-85
2022/09/02 07:16:49;;;;;;;5.18;1.10;;;19.00;90.80;;;;;;4998109;28;20135;-85
2022/09/02 07:19:16;;;;;;;4.68;1.88;;;19.10;90.70;;;;;;5007272;28;20038;-85
2022/09/02 07:21:42;;;;;;;3.13;1.55;;;19.10;90.70;;;;;;4992009;28;20751;-85
2022/09/02 07:24:11;;;;;;;6.80;1.48;;;19.10;90.60;;;;;;4975752;28;20030;-85
2022/09/02 07:26:38;;;;;;;5.85;2.45;;;19.10;90.80;;;;;;4993283;28;20038;-85
2022/09/02 07:29:07;;;;;;;3.03;1.33;;;19.10;90.90;;;;;;4992985;28;20056;-85
2022/09/02 07:31:40;;;;;;;3.10;1.83;;;19.10;90.80;;;;;;5019442;28;20026;-85
2022/09/02 07:34:07;;;;;;;4.53;1.58;;;18.70;92.90;;;;;;5012001;28;20026;-85
2022/09/02 07:36:35;;;;;;;6.85;1.67;;;19.10;90.90;;;;;;5012539;28;20616;-85
2022/09/02 07:39:05;;;;;;;5.15;1.95;;;19.20;90.90;;;;;;5012308;28;20033;-85
2022/09/02 07:41:32;;;;;;;1.88;1.33;;;19.20;93.10;;;;;;5028093;28;20037;-85
2022/09/02 07:43:58;;;;;;;2.40;1.90;;;19.20;91.00;;;;;;5027952;28;20033;-85
2022/09/02 07:46:28;;;;;;;5.45;2.33;;;19.20;91.00;;;;;;5016422;28;20034;-85
2022/09/02 07:48:54;;;;;;;6.80;2.25;;;19.20;91.20;;;;;;5007280;28;20037;-86
2022/09/02 07:51:20;;;;;;;3.75;2.17;;;19.20;91.20;;;;;;4991704;28;20022;-86
2022/09/02 07:53:48;;;;;;;5.38;1.90;;;19.20;91.20;;;;;;4975600;28;20034;-85
2022/09/02 07:56:14;;;;;;;5.68;1.88;;;19.30;91.20;;;;;;4991203;28;20057;-86
2022/09/02 07:58:42;;;;;;;4.50;2.75;;;19.30;91.50;;;;;;5007816;28;20069;-86
2022/09/02 08:01:09;;;;;;;3.92;1.55;;;19.30;91.30;;;;;;5018093;28;20025;-86
2022/09/02 08:03:38;;;;;;;5.43;2.83;;;19.30;91.20;;;;;;5025728;28;20022;-86
2022/09/02 08:06:06;;;;;;;4.50;1.83;;;19.30;91.30;;;;;;5026166;28;20022;-86
2022/09/02 08:08:33;;;;;;;13.43;2.92;;;19.30;91.40;;;;;;5021776;28;20053;-85
2022/09/02 08:10:59;;;;;;;7.47;1.95;;;19.40;91.40;;;;;;5006708;28;20038;-86
2022/09/02 08:13:25;;;;;;;2.92;2.33;;;19.40;93.30;;;;;;5008009;28;20528;-86
2022/09/02 08:15:51;;;;;;;2.33;1.65;;;19.40;91.40;;;;;;5025050;28;20030;-86
2022/09/02 08:18:17;;;;;;;4.78;1.48;;;19.50;91.30;;;;;;5021652;28;20056;-87
2022/09/02 08:20:44;;;;;;;3.35;2.58;;;19.50;91.30;;;;;;5019006;28;20118;-86
2022/09/02 08:23:10;;;;;;;6.88;1.98;;;19.50;91.50;;;;;;5014821;28;20022;-86
2022/09/02 08:25:36;;;;;;;9.90;2.38;;;19.50;91.30;;;;;;5031100;28;20030;-86
2022/09/02 08:28:03;;;;;;;2.40;2.20;;;19.50;91.20;;;;;;5031172;28;20030;-86
2022/09/02 08:30:29;;;;;;;4.60;1.40;;;19.60;91.30;;;;;;5030109;28;20470;-86
2022/09/02 08:32:55;;;;;;;6.57;1.83;;;19.60;91.20;;;;;;5031054;28;20097;-87
2022/09/02 08:35:21;;;;;;;6.00;1.98;;;19.60;91.20;;;;;;5014633;28;20098;-86
2022/09/02 08:37:47;;;;;;;3.00;2.42;;;19.60;91.20;;;;;;5029075;28;20030;-86
2022/09/02 08:40:18;;;;;;;5.20;2.45;;;19.70;93.20;;;;;;5011036;28;20549;-86
2022/09/02 08:42:51;;;;;;;1.85;1.40;;;19.70;91.10;;;;;;5021666;28;20037;-85
2022/09/02 08:45:24;;;;;;;6.30;1.73;;;19.70;91.00;;;;;;5045297;28;20033;-86
2022/09/02 08:48:03;;;;;;;5.55;2.67;;;19.70;91.00;;;;;;5030003;28;20090;-86
2022/09/02 08:50:31;;;;;;;2.03;1.63;;;19.70;91.10;;;;;;5019058;28;20038;-86
2022/09/02 08:53:08;;;;;;;3.58;1.40;;;19.80;91.10;;;;;;5011496;28;20474;-86
2022/09/02 08:55:48;;;;;;;2.20;1.48;;;19.90;91.00;;;;;;5029094;28;20104;-86
2022/09/02 08:58:17;;;;;;;3.15;2.22;;;19.90;90.80;;;;;;5008360;28;20045;-86
2022/09/02 09:00:54;;;;;;;2.58;1.75;;;20.00;90.80;;;;;;5008500;28;20030;-86
2022/09/02 09:03:31;;;;;;;2.95;1.80;;;20.00;90.70;;;;;;5007425;28;20046;-86
2022/09/02 09:06:15;;;;;;;4.63;2.28;;;20.10;90.60;;;;;;5006230;28;20097;-86
2022/09/02 09:08:50;;;;;;;5.40;2.30;;;20.20;90.60;;;;;;5007832;28;20047;-87
2022/09/02 09:11:47;;;;;;;3.50;1.60;;;20.30;90.60;;;;;;5023190;28;20030;-86
2022/09/02 09:14:27;;;;;;;4.57;2.70;;;20.30;90.70;;;;;;5030918;28;20038;-87
2022/09/02 09:16:57;;;;;;;;;;;20.40;90.70;;;;;;5022582;28;20112;-86
2022/09/02 09:19:43;;;;;;;2.40;1.95;;;20.50;90.70;;;;;;5005762;28;20446;-86
2022/09/02 09:22:13;;;;;;;4.45;1.80;;;20.50;90.60;;;;;;5022299;28;20054;-87
2022/09/02 09:24:41;;;;;;;6.13;1.92;;;20.60;90.60;;;;;;4992779;28;20040;-86
2022/09/02 09:27:13;;;;;;;5.93;1.70;;;20.60;90.50;;;;;;4988903;28;20030;-87
2022/09/02 09:29:39;;;;;;;7.63;2.20;;;20.70;90.70;;;;;;5006933;28;20064;-86
2022/09/02 09:32:39;;;;;;;1.63;1.27;;;20.70;90.50;;;;;;5005500;28;20022;-86
2022/09/02 09:35:17;;;;;;;2.53;1.83;;;21.10;92.60;;;;;;4990344;28;20100;-86
2022/09/02 09:37:47;;;;;;;2.45;1.60;;;20.80;90.40;;;;;;5004867;28;20364;-87
2022/09/02 09:40:19;;;;;;;1.92;1.42;;;20.90;90.40;;;;;;5004175;28;20031;-86
2022/09/02 09:42:48;;;;;;;5.75;1.30;;;20.90;90.30;;;;;;5020133;28;20413;-87
2022/09/02 09:45:33;;;;;;;5.47;2.05;;;21.00;90.40;;;;;;5022047;28;20052;-86
2022/09/02 09:48:32;;;;;;;4.32;2.67;;;21.00;90.50;;;;;;5016999;28;20033;-86
2022/09/02 09:50:58;;;;;;;3.72;2.17;;;21.10;90.20;;;;;;5005288;28;20026;-86
2022/09/02 09:53:25;;;;;;;1.25;1.17;;;21.10;90.20;;;;;;5011384;28;20980;-86
2022/09/02 09:56:06;;;;;;;5.88;1.88;;;21.10;90.30;;;;;;5026630;28;20030;-84
2022/09/02 09:58:39;;;;;;;2.88;1.48;;;21.20;90.30;;;;;;5006137;28;20045;-85
2022/09/02 10:01:11;;;;;;;1.50;1.40;;;21.20;90.30;;;;;;5017009;28;20125;-85
2022/09/02 10:03:41;;;;;;;5.00;1.35;;;21.30;90.20;;;;;;5007394;28;20041;-85
2022/09/02 10:06:40;;;;;;;2.95;1.75;;;21.30;90.10;;;;;;5023477;28;20097;-85
2022/09/02 10:09:33;;;;;;;8.67;1.87;;;21.40;90.20;;;;;;5018826;28;20051;-85
2022/09/02 10:12:12;;;;;;;6.82;2.92;;;21.60;89.80;;;;;;5004897;28;20030;-86
2022/09/02 10:14:49;;;;;;;2.10;1.47;;;21.70;89.60;;;;;;5009897;28;20121;-86
2022/09/02 10:17:31;;;;;;;3.20;1.60;;;21.80;89.30;;;;;;5025870;28;20022;-87
2022/09/02 10:20:26;;;;;;;2.15;1.42;;;21.90;89.20;;;;;;5019940;28;20048;-87
2022/09/02 10:22:52;;;;;;;2.70;1.40;;;22.00;89.00;;;;;;5083012;28;20035;-87
2022/09/02 10:25:19;;;;;;;4.63;2.00;;;22.10;88.70;;;;;;5024275;28;20034;-88
2022/09/02 10:28:13;;;;;;;2.05;1.50;;;22.20;88.20;;;;;;5115902;28;20284;-88
2022/09/02 10:30:58;;;;;;;11.43;1.63;;;22.20;88.00;;;;;;5113199;28;20089;-88
2022/09/02 10:33:36;;;;;;;2.78;2.10;;;22.30;87.70;;;;;;5043650;28;20041;-88
2022/09/02 10:36:13;;;;;;;3.85;1.73;;;22.40;90.50;;;;;;4992367;28;20042;-88
2022/09/02 10:38:43;;;;;;;2.40;1.75;;;22.50;87.20;;;;;;5009838;28;20041;-88
2022/09/02 10:41:38;;;;;;;1.45;1.30;;;22.60;87.10;;;;;;4992524;28;20035;-88
2022/09/02 10:44:43;;;;;;;1.42;1.33;;;22.60;86.80;;;;;;5008418;28;20035;-89
2022/09/02 10:47:34;;;;;;;3.38;1.50;;;22.80;86.50;;;;;;5049615;28;20030;-88
2022/09/02 10:50:41;;;;;;;2.28;1.13;;;22.80;86.10;;;;;;5032699;28;20034;-88
2022/09/02 10:53:43;;;;;;;2.13;1.92;;;23.00;83.80;;;;;;5021336;28;20434;-88
2022/09/02 10:56:22;;;;;;;1.40;0.90;;;23.60;81.20;;;;;;5007758;28;20034;-88
2022/09/02 10:59:04;;;;;;;3.47;1.60;;;23.80;81.20;;;;;;5001956;28;20066;-85
2022/09/02 11:01:33;;;;;;;1.90;1.42;;;24.00;80.00;;;;;;5009260;28;20031;-85
2022/09/02 11:04:20;;;;;;;3.47;1.80;;;24.20;78.10;;;;;;5008722;28;20019;-85
2022/09/02 11:06:49;;;;;;;10.35;2.45;;;24.30;78.60;;;;;;5005465;28;20089;-85
2022/09/02 11:09:36;;;;;;;1.40;1.30;;;24.30;78.10;;;;;;4989029;28;20084;-86
2022/09/02 11:12:17;;;;;;;1.10;1.00;;;24.30;78.10;;;;;;5007163;28;20022;-85
2022/09/02 11:15:03;;;;;;;2.90;1.30;;;24.40;78.20;;;;;;5022366;28;20030;-86
2022/09/02 11:17:43;;;;;;;3.67;1.95;;;24.50;77.60;;;;;;5024832;28;20101;-87
2022/09/02 11:20:29;;;;;;;1.50;1.40;;;24.50;77.30;;;;;;5025565;28;20470;-88
2022/09/02 11:23:14;;;;;;;1.45;1.30;;;24.50;76.50;;;;;;5024541;28;20082;-86
2022/09/02 11:26:13;;;;;;;2.38;1.33;;;24.50;76.20;;;;;;5024616;28;20041;-88
2022/09/02 11:28:51;;;;;;;1.38;1.27;;;24.60;74.60;;;;;;5025969;28;20435;-88
2022/09/02 11:31:33;;;;;;;1.65;1.55;;;24.60;74.20;;;;;;5011246;28;20049;-86
2022/09/02 11:34:24;;;;;;;1.33;1.08;;;24.70;73.90;;;;;;5013120;28;20026;-86
2022/09/02 11:36:51;;;;;;;4.53;1.70;;;24.50;74.30;;;;;;5014285;28;20041;-85
2022/09/02 11:39:35;;;;;;;1.08;0.90;;;24.30;74.70;;;;;;4978689;28;20030;-85
2022/09/02 11:42:26;;;;;;;1.30;1.20;;;24.00;75.50;;;;;;5015757;28;20030;-85
2022/09/02 11:45:14;;;;;;;6.47;1.23;;;24.00;75.50;;;;;;5013312;28;20014;-85
2022/09/02 11:47:43;;;;;;;1.45;1.33;;;24.00;75.80;;;;;;5015520;28;20030;-85
2022/09/02 11:50:37;;;;;;;1.48;1.30;;;24.00;76.20;;;;;;5016165;28;20038;-85
2022/09/02 11:53:23;;;;;;;1.30;1.15;;;24.00;76.10;;;;;;5013567;28;20022;-85
2022/09/02 11:55:55;;;;;;;1.08;1.08;;;24.10;76.20;;;;;;5016632;28;20015;-86
2022/09/02 11:58:42;;;;;;;1.30;1.20;;;24.10;76.20;;;;;;5016387;28;20077;-85
2022/09/02 12:01:14;;;;;;;1.60;1.50;;;24.20;75.90;;;;;;5000243;28;20041;-86
2022/09/02 12:03:53;;;;;;;3.53;1.40;;;24.10;76.20;;;;;;5016530;28;20034;-85
2022/09/02 12:06:20;;;;;;;2.25;1.15;;;24.10;76.40;;;;;;5000575;28;20038;-87
2022/09/02 12:08:48;;;;;;;1.20;1.10;;;24.10;76.30;;;;;;5018025;28;20022;-86
2022/09/02 12:11:36;;;;;;;1.15;1.05;;;24.10;76.60;;;;;;5016072;28;20036;-86
2022/09/02 12:14:08;;;;;;;1.23;1.10;;;24.20;76.70;;;;;;5001218;28;20022;-86
2022/09/02 12:17:04;;;;;;;1.30;1.27;;;24.20;76.70;;;;;;5020100;28;20034;-86
2022/09/02 12:19:49;;;;;;;2.92;1.35;;;24.10;76.80;;;;;;5034069;28;20041;-86
2022/09/02 12:22:15;;;;;;;0.82;0.82;;;24.10;77.00;;;;;;5003638;28;20034;-87
2022/09/02 12:24:52;;;;;;;1.00;1.00;;;24.10;77.00;;;;;;5036180;28;20014;-86
2022/09/02 12:27:26;;;;;;;3.88;1.50;;;24.30;78.70;;;;;;5037370;28;20014;-86
2022/09/02 12:29:52;;;;;;;4.25;1.33;;;24.10;76.70;;;;;;5036532;28;20029;-86
2022/09/02 12:32:44;;;;;;;3.38;1.50;;;24.20;76.50;;;;;;5003358;28;20014;-86
2022/09/02 12:35:49;;;;;;;1.13;1.02;;;24.20;76.30;;;;;;5016021;28;20019;-86
2022/09/02 12:38:26;;;;;;;2.70;1.40;;;24.30;76.00;;;;;;5016037;28;20042;-86
2022/09/02 12:41:07;;;;;;;2.53;1.45;;;24.30;75.70;;;;;;5017382;28;20044;-86
2022/09/02 12:44:08;;;;;;;1.90;1.25;;;24.40;75.30;;;;;;5016901;28;20018;-86
2022/09/02 12:46:43;;;;;;;6.68;1.98;;;24.30;75.60;;;;;;5028976;28;20038;-86
2022/09/02 12:49:34;;;;;;;1.08;0.98;;;24.20;75.40;;;;;;5030214;28;20030;-87
2022/09/02 12:52:07;;;;;;;0.70;0.70;;;24.30;75.10;;;;;;5017399;28;20018;-86
2022/09/02 12:54:47;;;;;;;5.68;1.67;;;24.30;75.10;;;;;;5032890;28;20077;-86
2022/09/02 12:57:15;;;;;;;;;;;24.40;75.10;;;;;;5034976;28;20006;-86
2022/09/02 12:59:42;;;;;;;1.70;1.33;;;24.40;75.30;;;;;;5035983;28;19905;-86
2022/09/02 13:02:23;;;;;;;1.45;1.02;;;24.40;75.40;;;;;;5032604;28;20045;-86
2022/09/02 13:05:24;;;;;;;1.15;0.98;;;24.40;75.50;;;;;;5015005;28;20060;-86
2022/09/02 13:08:25;;;;;;;1.17;1.05;;;24.40;75.30;;;;;;5017055;28;20074;-86
2022/09/02 13:11:26;;;;;;;2.95;1.38;;;24.40;75.50;;;;;;5019303;28;20050;-86
2022/09/02 13:14:14;;;;;;;1.63;1.20;;;24.50;75.40;;;;;;5023924;28;20034;-86
2022/09/02 13:17:08;;;;;;;1.20;1.10;;;24.50;75.30;;;;;;4998517;28;20054;-86